Time;durP1;ratioP1;P1;durP2;ratioP2;P2;SDS_P1;SDS_P2;PMS_P1;PMS_P2;Temp;Humidity;BMP_temperature;BMP_pressure;BME280_temperature;BME280_humidity;BME280_pressure;Samples;Min_cycle;Max_cycle;Signal;HPM_P1;HPM_P2
2022/01/28 00:02:31;;;;;;;5.68;2.05;;;8.00;99.90;;;;;;10512187;28;20039;-69
2022/01/28 00:07:32;;;;;;;4.90;0.80;;;7.90;99.90;;;;;;10517202;28;20048;-65
2022/01/28 00:12:35;;;;;;;4.15;1.13;;;7.90;99.90;;;;;;10537439;28;20029;-68
2022/01/28 00:38:52;;;;;;;3.90;0.80;;;7.80;99.90;;;;;;10518028;28;20084;-67
2022/01/28 00:43:53;;;;;;;4.57;0.82;;;7.80;99.90;;;;;;10526761;28;20367;-69
2022/01/28 00:48:54;;;;;;;4.43;1.05;;;7.80;99.90;;;;;;10527367;28;20552;-68
2022/01/28 00:53:54;;;;;;;11.60;1.50;;;7.80;99.90;;;;;;10504462;28;21079;-69
2022/01/28 00:58:55;;;;;;;6.88;0.95;;;7.80;99.90;;;;;;10532360;28;20036;-68
2022/01/28 01:04:00;;;;;;;5.25;0.90;;;8.00;99.90;;;;;;10527072;28;20470;-66
2022/01/28 01:09:01;;;;;;;3.08;0.93;;;7.80;99.90;;;;;;10543624;28;20081;-67
2022/01/28 01:14:02;;;;;;;5.65;1.08;;;7.80;99.90;;;;;;10510976;28;20020;-67
2022/01/28 01:24:20;;;;;;;7.65;1.40;;;7.80;99.90;;;;;;10516991;28;20386;-67
2022/01/28 01:29:23;;;;;;;4.65;0.73;;;7.80;99.90;;;;;;10533372;28;20032;-68
2022/01/28 01:34:23;;;;;;;7.82;1.05;;;7.90;99.90;;;;;;10515994;28;20076;-68
2022/01/28 01:39:29;;;;;;;5.85;1.30;;;7.80;99.90;;;;;;10528834;28;20029;-69
2022/01/28 01:44:50;;;;;;;4.47;1.52;;;7.80;99.90;;;;;;10550760;28;20089;-69
2022/01/28 01:55:10;;;;;;;4.82;1.30;;;7.80;99.90;;;;;;10529320;28;20038;-66
2022/01/28 02:00:12;;;;;;;9.20;1.40;;;7.80;99.90;;;;;;10540316;28;20800;-68
2022/01/28 02:05:14;;;;;;;6.22;1.27;;;7.80;99.90;;;;;;10547111;28;20044;-67
2022/01/28 02:10:15;;;;;;;4.47;1.13;;;7.80;99.90;;;;;;10559639;28;20077;-68
2022/01/28 02:15:16;;;;;;;9.55;1.88;;;7.80;99.90;;;;;;10540046;28;20119;-68
2022/01/28 02:20:27;;;;;;;5.13;0.68;;;8.20;99.90;;;;;;10519080;28;20123;-69
2022/01/28 02:25:31;;;;;;;6.85;1.27;;;7.80;99.90;;;;;;10531157;28;20040;-68
2022/01/28 02:30:33;;;;;;;6.75;1.10;;;7.70;99.90;;;;;;10530770;28;20050;-69
2022/01/28 02:35:34;;;;;;;5.60;1.20;;;7.70;99.90;;;;;;10532345;28;20028;-68
2022/01/28 02:40:35;;;;;;;7.18;1.30;;;7.80;99.90;;;;;;10512552;28;20109;-69
2022/01/28 02:45:38;;;;;;;7.60;1.77;;;7.70;99.90;;;;;;10543343;28;20069;-67
2022/01/28 02:50:46;;;;;;;5.90;1.15;;;7.70;99.90;;;;;;10529401;28;20060;-63
2022/01/28 02:55:47;;;;;;;9.18;1.40;;;7.70;99.90;;;;;;10534712;28;20693;-68
2022/01/28 03:00:49;;;;;;;5.55;1.13;;;7.70;99.90;;;;;;10540541;28;20024;-67
2022/01/28 03:05:51;;;;;;;7.03;1.10;;;7.70;99.90;;;;;;10533877;28;20116;-66
2022/01/28 03:16:07;;;;;;;13.35;1.33;;;7.70;99.90;;;;;;10529177;28;20118;-68
2022/01/28 03:21:21;;;;;;;8.25;0.95;;;7.70;99.90;;;;;;10517339;28;20035;-69
2022/01/28 03:26:27;;;;;;;3.83;0.82;;;7.70;99.90;;;;;;10528680;28;20039;-66
2022/01/28 03:31:28;;;;;;;3.78;1.13;;;7.70;99.90;;;;;;10519990;28;20028;-67
2022/01/28 03:36:28;;;;;;;5.38;0.88;;;7.70;99.90;;;;;;10507334;28;20032;-67
2022/01/28 03:41:29;;;;;;;5.68;1.20;;;7.80;99.90;;;;;;10528922;28;20390;-64
2022/01/28 03:46:30;;;;;;;4.72;0.73;;;7.70;99.90;;;;;;10540375;28;20060;-68
2022/01/28 03:51:31;;;;;;;2.35;0.82;;;7.70;99.90;;;;;;10523094;28;20475;-68
2022/01/28 03:56:31;;;;;;;9.10;1.00;;;7.70;99.90;;;;;;10531291;28;20035;-67
2022/01/28 04:01:36;;;;;;;4.68;0.90;;;7.70;99.90;;;;;;10530660;28;20111;-68
2022/01/28 04:11:58;;;;;;;8.88;1.67;;;7.70;99.90;;;;;;10537601;28;20035;-67
2022/01/28 04:22:19;;;;;;;6.85;0.95;;;7.70;99.90;;;;;;10506862;28;20032;-67
2022/01/28 04:27:20;;;;;;;5.10;0.80;;;7.70;99.90;;;;;;10516957;28;20036;-67
2022/01/28 04:32:22;;;;;;;6.63;1.00;;;7.80;99.90;;;;;;10527048;28;20436;-64
2022/01/28 04:38:17;;;;;;;7.45;1.00;;;7.70;99.90;;;;;;10528232;28;20032;-66
2022/01/28 04:43:00;;;;;;;3.47;1.08;;;7.70;99.90;;;;;;10528302;28;20067;-67
2022/01/28 04:58:20;;;;;;;4.60;1.10;;;7.60;99.90;;;;;;10541129;28;20040;-68
2022/01/28 05:03:35;;;;;;;6.22;1.10;;;7.60;99.90;;;;;;10514907;28;20039;-72
2022/01/28 05:29:18;;;;;;;7.03;1.23;;;7.60;99.90;;;;;;10534147;28;20051;-72
2022/01/28 05:34:19;;;;;;;9.98;1.92;;;7.60;99.90;;;;;;10516442;28;20020;-65
2022/01/28 05:39:20;;;;;;;7.95;1.10;;;7.60;99.90;;;;;;10520526;28;20493;-72
2022/01/28 05:44:22;;;;;;;6.43;1.02;;;7.60;99.90;;;;;;10533235;28;20024;-67
2022/01/28 05:49:23;;;;;;;6.75;1.40;;;7.60;99.90;;;;;;10533822;28;20056;-72
2022/01/28 05:54:24;;;;;;;6.35;0.90;;;7.60;99.90;;;;;;10528827;28;20571;-72
2022/01/28 05:59:25;;;;;;;4.53;1.30;;;7.50;99.90;;;;;;10538842;28;20432;-71
2022/01/28 06:04:26;;;;;;;7.78;1.10;;;7.60;99.90;;;;;;10533773;28;20501;-72
2022/01/28 06:09:27;;;;;;;8.27;1.20;;;7.60;99.90;;;;;;10546743;28;20036;-69
2022/01/28 06:14:27;;;;;;;5.18;1.02;;;7.80;99.90;;;;;;10532291;28;20089;-70
2022/01/28 06:19:28;;;;;;;8.20;1.25;;;7.70;99.90;;;;;;10518178;28;20031;-70
2022/01/28 06:24:29;;;;;;;5.50;1.23;;;7.60;99.90;;;;;;10480146;28;20024;-69
2022/01/28 06:29:30;;;;;;;16.08;2.28;;;7.50;99.90;;;;;;10531097;28;20036;-69
2022/01/28 06:34:31;;;;;;;6.97;0.90;;;7.50;99.90;;;;;;10520801;28;20544;-71
2022/01/28 06:39:32;;;;;;;5.10;1.08;;;7.50;99.90;;;;;;10519818;28;20143;-70
2022/01/28 06:44:33;;;;;;;9.20;1.23;;;7.50;99.90;;;;;;10524609;28;20039;-70
2022/01/28 06:49:34;;;;;;;4.40;0.80;;;7.50;99.90;;;;;;10537088;28;20051;-62
2022/01/28 06:54:35;;;;;;;5.38;1.17;;;7.40;99.90;;;;;;10518019;28;20383;-66
2022/01/28 06:59:36;;;;;;;6.75;1.25;;;7.40;99.90;;;;;;10513423;28;20025;-70
2022/01/28 07:04:37;;;;;;;9.35;1.42;;;7.40;99.90;;;;;;10519833;28;20500;-67
2022/01/28 07:09:38;;;;;;;4.55;1.23;;;7.40;99.90;;;;;;10509903;28;20042;-70
2022/01/28 07:14:38;;;;;;;6.22;1.25;;;7.40;99.90;;;;;;10516166;28;20021;-71
2022/01/28 07:19:39;;;;;;;7.10;1.40;;;7.30;99.80;;;;;;10528239;28;20077;-65
2022/01/28 07:24:40;;;;;;;9.38;1.85;;;7.30;99.80;;;;;;10528561;28;20217;-67
2022/01/28 07:29:41;;;;;;;6.85;0.95;;;7.30;99.80;;;;;;10515366;28;20035;-65
2022/01/28 07:34:41;;;;;;;5.82;0.95;;;7.30;99.80;;;;;;10528789;28;20031;-67
2022/01/28 07:39:42;;;;;;;6.30;1.40;;;7.30;99.80;;;;;;10528451;28;20042;-66
2022/01/28 07:44:43;;;;;;;7.90;1.40;;;7.30;99.70;;;;;;10522717;28;20037;-66
2022/01/28 07:49:44;;;;;;;9.20;1.63;;;7.30;99.70;;;;;;10527948;28;20399;-66
2022/01/28 07:54:49;;;;;;;11.18;1.67;;;7.60;99.80;;;;;;10524390;28;20375;-66
2022/01/28 07:59:50;;;;;;;8.10;1.73;;;7.20;99.60;;;;;;10516247;28;20035;-65
2022/01/28 08:04:50;;;;;;;9.13;2.13;;;7.30;99.60;;;;;;10520212;28;20028;-65
2022/01/28 08:09:51;;;;;;;5.75;1.30;;;7.30;99.60;;;;;;10536947;28;20119;-65
2022/01/28 08:14:52;;;;;;;6.30;1.35;;;7.30;99.60;;;;;;10524863;28;20028;-64
2022/01/28 08:19:52;;;;;;;9.23;1.85;;;7.30;99.50;;;;;;10530228;28;20031;-66
2022/01/28 08:24:53;;;;;;;9.30;1.98;;;7.30;99.50;;;;;;10511359;28;20040;-66
2022/01/28 08:29:54;;;;;;;6.90;1.20;;;7.20;99.50;;;;;;10508106;28;20645;-65
2022/01/28 08:34:54;;;;;;;9.60;1.67;;;7.20;99.40;;;;;;10496479;28;20023;-65
2022/01/28 08:39:55;;;;;;;10.68;2.45;;;7.30;99.50;;;;;;10504614;28;20029;-65
2022/01/28 08:44:56;;;;;;;8.65;1.40;;;7.30;99.40;;;;;;10538754;28;20515;-66
2022/01/28 08:49:57;;;;;;;3.67;1.38;;;8.00;99.50;;;;;;10512944;28;20644;-65
2022/01/28 08:54:57;;;;;;;6.50;1.98;;;7.30;99.40;;;;;;10526151;28;20100;-64
2022/01/28 08:59:58;;;;;;;8.40;1.80;;;7.30;99.30;;;;;;10530978;28;20490;-64
2022/01/28 09:04:59;;;;;;;9.15;1.92;;;7.30;99.30;;;;;;10527472;28;20047;-64
2022/01/28 09:10:06;;;;;;;10.23;1.85;;;7.40;99.30;;;;;;10541600;28;20112;-65
2022/01/28 09:15:07;;;;;;;13.70;2.67;;;7.60;99.30;;;;;;10513823;28;20020;-65
2022/01/28 09:20:09;;;;;;;7.70;2.00;;;7.50;99.20;;;;;;10501725;28;20044;-66
2022/01/28 09:25:09;;;;;;;9.02;2.00;;;7.50;99.40;;;;;;10507468;28;20088;-66
2022/01/28 09:30:10;;;;;;;9.95;2.22;;;7.80;99.20;;;;;;10514695;28;20049;-66
2022/01/28 09:35:12;;;;;;;11.75;2.03;;;7.50;99.10;;;;;;10524736;28;20433;-65
2022/01/28 09:40:13;;;;;;;13.10;2.60;;;7.60;99.10;;;;;;10514298;28;20020;-66
2022/01/28 09:45:16;;;;;;;6.43;1.80;;;7.60;99.10;;;;;;10532300;28;20083;-65
2022/01/28 09:50:18;;;;;;;10.75;2.25;;;7.60;99.10;;;;;;10531860;28;20040;-66
2022/01/28 09:55:20;;;;;;;10.40;1.77;;;7.60;99.10;;;;;;10521993;28;20035;-66
2022/01/28 10:00:23;;;;;;;7.68;2.28;;;7.60;99.00;;;;;;10539001;28;20054;-66
2022/01/28 10:05:53;;;;;;;11.95;2.05;;;7.60;99.00;;;;;;10533860;28;20036;-67
2022/01/28 10:11:07;;;;;;;8.38;2.03;;;7.70;99.00;;;;;;10510990;28;20055;-66
2022/01/28 10:16:16;;;;;;;15.48;2.45;;;7.70;99.10;;;;;;10531432;28;20044;-66
2022/01/28 10:21:28;;;;;;;7.57;2.10;;;7.70;99.10;;;;;;10550357;28;20572;-66
2022/01/28 10:26:34;;;;;;;8.70;2.15;;;7.70;99.00;;;;;;10524628;28;20363;-67
2022/01/28 10:31:47;;;;;;;9.40;2.15;;;7.80;99.00;;;;;;10530491;28;20034;-66
2022/01/28 10:36:50;;;;;;;8.18;2.17;;;7.80;99.00;;;;;;10529787;28;20024;-65
2022/01/28 10:41:58;;;;;;;9.80;2.15;;;7.80;99.00;;;;;;10539831;28;20107;-66
2022/01/28 10:47:06;;;;;;;5.80;1.90;;;7.80;98.90;;;;;;10501641;28;20036;-65
2022/01/28 10:52:11;;;;;;;8.20;2.17;;;7.90;98.90;;;;;;10531927;28;20028;-67
2022/01/28 10:57:12;;;;;;;10.38;3.08;;;7.90;98.90;;;;;;10537008;28;20196;-68
2022/01/28 11:02:12;;;;;;;12.25;2.35;;;7.90;98.90;;;;;;10521984;28;20103;-65
2022/01/28 11:07:13;;;;;;;7.88;2.03;;;7.90;98.90;;;;;;10523930;28;20401;-66
2022/01/28 11:12:14;;;;;;;9.45;2.67;;;8.00;98.90;;;;;;10542414;28;20296;-65
2022/01/28 11:17:16;;;;;;;10.45;1.98;;;8.00;98.90;;;;;;10530512;28;20350;-65
2022/01/28 11:22:34;;;;;;;8.95;2.45;;;8.10;98.80;;;;;;10523784;28;20024;-67
2022/01/28 11:27:37;;;;;;;9.55;2.13;;;8.20;98.80;;;;;;10529742;28;20051;-61
2022/01/28 11:33:00;;;;;;;10.55;2.10;;;8.20;98.80;;;;;;10530596;28;20085;-68
2022/01/28 11:38:21;;;;;;;10.52;2.40;;;8.30;98.80;;;;;;10514938;28;20046;-67
2022/01/28 11:43:31;;;;;;;6.38;1.73;;;8.30;98.80;;;;;;10530609;28;20093;-66
2022/01/28 11:48:58;;;;;;;6.97;2.30;;;8.30;98.80;;;;;;10521995;28;20076;-66
2022/01/28 11:54:04;;;;;;;8.93;2.40;;;8.30;98.70;;;;;;10438990;28;20044;-63
2022/01/28 11:59:09;;;;;;;8.63;2.35;;;8.40;98.80;;;;;;10506471;28;20052;-66
2022/01/28 12:04:25;;;;;;;9.23;1.73;;;8.30;98.80;;;;;;10484842;28;20036;-66
2022/01/28 12:09:27;;;;;;;9.00;1.98;;;8.40;98.80;;;;;;10494799;28;20032;-66
2022/01/28 12:14:55;;;;;;;9.15;2.25;;;8.50;98.80;;;;;;10502041;28;20119;-65
2022/01/28 12:20:11;;;;;;;3.75;1.38;;;8.40;98.80;;;;;;10493922;28;20082;-65
2022/01/28 12:25:40;;;;;;;8.15;1.88;;;8.50;98.80;;;;;;10491173;28;20486;-66
2022/01/28 12:30:46;;;;;;;11.48;2.47;;;8.50;98.80;;;;;;10462102;28;20031;-65
2022/01/28 12:35:50;;;;;;;6.43;1.83;;;8.40;98.80;;;;;;10498800;28;20115;-66
2022/01/28 12:40:54;;;;;;;5.50;1.63;;;8.50;98.90;;;;;;10495500;28;20079;-67
2022/01/28 12:46:04;;;;;;;8.90;2.33;;;8.50;98.90;;;;;;10499626;28;20068;-67
2022/01/28 12:51:05;;;;;;;7.22;1.83;;;8.50;98.80;;;;;;10482012;28;20056;-66
2022/01/28 12:56:08;;;;;;;7.28;1.92;;;8.50;99.10;;;;;;10462711;28;20079;-66
2022/01/28 13:01:13;;;;;;;8.98;1.75;;;8.50;98.90;;;;;;10506323;28;20043;-67
2022/01/28 13:06:40;;;;;;;11.07;1.98;;;8.60;98.90;;;;;;10495539;28;20044;-61
2022/01/28 13:11:46;;;;;;;7.07;1.73;;;8.60;98.80;;;;;;10497154;28;20108;-64
2022/01/28 13:16:48;;;;;;;8.70;2.17;;;8.60;98.90;;;;;;10493236;28;20478;-62
2022/01/28 13:21:50;;;;;;;5.60;1.65;;;8.60;98.90;;;;;;10527564;28;20036;-64
2022/01/28 13:27:00;;;;;;;12.80;1.98;;;8.60;98.90;;;;;;10525304;28;20032;-70
2022/01/28 13:32:05;;;;;;;10.63;1.90;;;8.60;98.90;;;;;;10483950;28;20104;-70
2022/01/28 13:37:08;;;;;;;10.27;2.72;;;8.60;98.90;;;;;;10497537;28;20016;-69
2022/01/28 13:42:12;;;;;;;7.18;1.88;;;8.60;98.90;;;;;;10502782;28;20033;-65
2022/01/28 13:47:13;;;;;;;7.93;1.50;;;8.60;98.90;;;;;;10527004;28;20132;-70
2022/01/28 13:52:28;;;;;;;6.38;1.83;;;8.60;98.90;;;;;;10506790;28;20056;-69
2022/01/28 13:57:29;;;;;;;6.88;1.42;;;8.60;98.90;;;;;;10524277;28;20020;-70
2022/01/28 14:02:40;;;;;;;10.25;2.30;;;8.60;98.90;;;;;;10520505;28;20412;-65
2022/01/28 14:07:53;;;;;;;6.68;1.40;;;8.60;99.10;;;;;;10513890;28;20128;-70
2022/01/28 14:12:56;;;;;;;8.35;1.50;;;8.70;98.80;;;;;;10540990;28;20028;-71
2022/01/28 14:18:01;;;;;;;6.53;1.63;;;8.70;98.80;;;;;;10533619;28;20032;-69
2022/01/28 14:23:02;;;;;;;7.18;1.83;;;8.70;98.80;;;;;;10531516;28;20020;-71
2022/01/28 14:33:12;;;;;;;5.55;1.50;;;8.70;98.80;;;;;;10494382;28;20029;-69
2022/01/28 14:38:13;;;;;;;5.15;1.40;;;8.80;98.80;;;;;;10508165;28;20619;-70
2022/01/28 14:43:13;;;;;;;7.43;1.52;;;8.80;98.80;;;;;;10544162;28;20043;-66
2022/01/28 14:48:19;;;;;;;3.90;1.00;;;8.80;98.70;;;;;;10495318;28;20495;-71
2022/01/28 14:53:20;;;;;;;12.82;1.70;;;8.80;98.70;;;;;;10492334;28;20041;-69
2022/01/28 14:58:21;;;;;;;18.25;2.20;;;8.80;98.70;;;;;;10500945;28;20025;-71
2022/01/28 15:03:21;;;;;;;7.95;1.77;;;8.80;98.70;;;;;;10517934;28;20028;-69
2022/01/28 15:08:27;;;;;;;7.20;1.35;;;8.80;98.70;;;;;;10508927;28;20043;-71
2022/01/28 15:13:28;;;;;;;7.35;1.48;;;8.70;98.70;;;;;;10531219;28;20038;-67
2022/01/28 15:18:29;;;;;;;8.65;2.10;;;8.70;98.80;;;;;;10526443;28;20023;-68
2022/01/28 15:23:30;;;;;;;4.75;0.90;;;8.70;98.80;;;;;;10514486;28;20058;-66
2022/01/28 15:28:37;;;;;;;4.53;1.27;;;8.60;98.80;;;;;;10515625;28;20040;-68
2022/01/28 15:38:57;;;;;;;;;;;8.60;98.90;;;;;;10512334;28;20062;-68
2022/01/28 15:43:57;;;;;;;5.90;1.40;;;8.60;98.80;;;;;;10524533;28;20037;-68
2022/01/28 15:48:58;;;;;;;7.85;1.73;;;8.60;99.00;;;;;;10511754;28;20085;-69
2022/01/28 15:53:59;;;;;;;5.68;1.40;;;8.60;99.10;;;;;;10522625;28;20020;-66
2022/01/28 15:59:00;;;;;;;4.10;1.65;;;8.60;99.10;;;;;;10502081;28;20048;-70
2022/01/28 16:04:00;;;;;;;7.22;1.88;;;9.50;99.40;;;;;;10487200;28;20028;-70
2022/01/28 16:09:03;;;;;;;8.70;2.10;;;8.50;99.20;;;;;;10497402;28;20033;-71
2022/01/28 16:14:15;;;;;;;5.35;1.42;;;8.50;99.20;;;;;;10470652;28;20029;-70
2022/01/28 16:19:15;;;;;;;5.53;1.67;;;8.50;99.20;;;;;;10504569;28;20071;-69
2022/01/28 16:24:17;;;;;;;7.43;2.00;;;8.50;99.20;;;;;;10506604;28;20036;-66
2022/01/28 16:29:18;;;;;;;8.82;2.08;;;8.60;99.40;;;;;;10488350;28;20035;-63
2022/01/28 16:34:21;;;;;;;8.15;2.00;;;8.60;99.30;;;;;;10484208;28;20036;-65
2022/01/28 16:39:22;;;;;;;7.57;2.20;;;8.60;99.30;;;;;;10485169;28;20028;-62
2022/01/28 16:44:24;;;;;;;8.07;2.15;;;8.60;99.40;;;;;;10489512;28;20695;-63
2022/01/28 16:49:25;;;;;;;9.55;2.08;;;8.60;99.40;;;;;;10524022;28;20295;-71
2022/01/28 16:54:26;;;;;;;6.55;1.90;;;8.50;99.40;;;;;;10523538;28;20028;-62
2022/01/28 16:59:26;;;;;;;6.45;2.15;;;8.50;99.40;;;;;;10516069;28;20078;-63
2022/01/28 17:04:27;;;;;;;7.03;1.92;;;8.50;99.40;;;;;;10487661;28;20032;-71
2022/01/28 17:09:32;;;;;;;6.55;1.95;;;8.50;99.40;;;;;;10516241;28;20039;-63
2022/01/28 17:14:33;;;;;;;7.85;1.70;;;8.50;99.50;;;;;;10509885;28;20026;-63
2022/01/28 17:19:34;;;;;;;5.45;1.70;;;8.40;99.40;;;;;;10531590;28;20032;-62
2022/01/28 17:24:37;;;;;;;7.32;2.08;;;8.40;99.50;;;;;;10524008;28;20428;-62
2022/01/28 17:29:38;;;;;;;6.63;1.75;;;8.40;99.50;;;;;;10525357;28;20032;-63
2022/01/28 17:34:39;;;;;;;7.68;1.60;;;8.40;99.50;;;;;;10512593;28;20029;-63
2022/01/28 17:39:42;;;;;;;7.15;1.80;;;8.40;99.50;;;;;;10498309;28;20078;-63
2022/01/28 17:44:42;;;;;;;7.20;1.77;;;8.50;99.50;;;;;;10503240;28;20089;-63
2022/01/28 17:49:43;;;;;;;3.58;1.65;;;8.60;99.50;;;;;;10491507;28;20091;-62
2022/01/28 17:54:46;;;;;;;3.20;1.35;;;8.60;99.50;;;;;;10505286;28;20031;-60
2022/01/28 17:59:47;;;;;;;3.60;1.60;;;8.60;99.50;;;;;;10522428;28;20082;-69
2022/01/28 18:04:48;;;;;;;5.60;1.77;;;8.50;99.40;;;;;;10515525;28;20017;-64
2022/01/28 18:09:49;;;;;;;4.45;1.10;;;8.50;99.50;;;;;;10497585;28;20032;-70
2022/01/28 18:14:49;;;;;;;4.13;1.60;;;8.50;99.50;;;;;;10496337;28;20031;-68
2022/01/28 18:19:50;;;;;;;6.05;1.67;;;8.40;99.50;;;;;;10529252;28;20638;-68
2022/01/28 18:24:51;;;;;;;3.67;1.55;;;8.40;99.50;;;;;;10529044;28;20020;-64
2022/01/28 18:29:51;;;;;;;6.80;1.60;;;8.40;99.50;;;;;;10515433;28;20040;-62
2022/01/28 18:34:52;;;;;;;6.95;1.70;;;8.70;99.50;;;;;;10488025;28;20284;-68
2022/01/28 18:39:53;;;;;;;3.55;1.33;;;8.40;99.50;;;;;;10521523;28;20512;-68
2022/01/28 18:44:56;;;;;;;5.88;1.50;;;8.40;99.50;;;;;;10539015;28;20032;-64
2022/01/28 18:49:59;;;;;;;8.00;1.85;;;8.40;99.50;;;;;;10517946;28;20428;-65
2022/01/28 18:55:00;;;;;;;3.80;1.35;;;8.40;99.50;;;;;;10525872;28;20107;-65
2022/01/28 19:00:01;;;;;;;5.63;1.98;;;8.40;99.50;;;;;;10529542;28;20444;-66
2022/01/28 19:05:06;;;;;;;4.88;2.00;;;8.40;99.50;;;;;;10524610;28;20012;-64
2022/01/28 19:10:14;;;;;;;6.45;1.70;;;8.40;99.50;;;;;;10542227;28;20043;-67
2022/01/28 19:15:16;;;;;;;5.25;2.00;;;8.40;99.50;;;;;;10527801;28;20032;-65
2022/01/28 19:20:18;;;;;;;6.32;2.20;;;8.40;99.60;;;;;;10526751;28;20119;-65
2022/01/28 19:25:19;;;;;;;7.40;2.10;;;8.40;99.50;;;;;;10516930;28;20330;-65
2022/01/28 19:30:20;;;;;;;7.18;2.28;;;8.40;99.50;;;;;;10505627;28;20049;-65
2022/01/28 19:35:22;;;;;;;6.78;2.65;;;8.40;99.60;;;;;;10509424;28;20040;-64
2022/01/28 19:40:23;;;;;;;6.10;2.55;;;8.40;99.70;;;;;;10505547;28;20012;-64
2022/01/28 19:45:24;;;;;;;6.13;2.63;;;8.40;99.70;;;;;;10488898;28;20040;-65
2022/01/28 19:50:26;;;;;;;9.65;4.07;;;8.40;99.80;;;;;;10506987;28;20047;-65
2022/01/28 19:55:27;;;;;;;7.72;3.83;;;8.40;99.80;;;;;;10496131;28;20024;-65
2022/01/28 20:00:29;;;;;;;8.88;3.85;;;8.40;99.80;;;;;;10498052;28;20506;-66
2022/01/28 20:05:29;;;;;;;11.77;4.35;;;8.40;99.90;;;;;;10511378;28;20055;-63
2022/01/28 20:10:30;;;;;;;10.57;5.25;;;8.40;99.90;;;;;;10482062;28;20025;-64
2022/01/28 20:15:31;;;;;;;10.07;4.70;;;8.40;99.90;;;;;;10473896;28;20032;-65
2022/01/28 20:20:32;;;;;;;9.52;5.35;;;8.40;99.90;;;;;;10480608;28;20093;-66
2022/01/28 20:25:32;;;;;;;8.88;5.28;;;8.30;99.90;;;;;;10481881;28;20078;-63
2022/01/28 20:30:33;;;;;;;9.65;5.15;;;8.40;99.90;;;;;;10478724;28;20557;-65
2022/01/28 20:35:35;;;;;;;10.90;5.40;;;8.40;99.90;;;;;;10470852;28;20028;-63
2022/01/28 20:40:36;;;;;;;13.13;5.57;;;8.30;99.90;;;;;;10480248;28;20039;-61
2022/01/28 20:45:37;;;;;;;11.63;5.85;;;8.40;99.90;;;;;;10475060;28;20033;-63
2022/01/28 20:50:37;;;;;;;13.10;5.93;;;8.40;99.90;;;;;;10489488;28;20493;-64
2022/01/28 20:55:38;;;;;;;11.77;5.90;;;8.40;99.90;;;;;;10482916;28;20351;-65
2022/01/28 21:00:40;;;;;;;13.82;6.47;;;8.40;99.90;;;;;;10517092;28;20412;-65
2022/01/28 21:05:41;;;;;;;17.73;6.68;;;8.40;99.90;;;;;;10511208;28;20060;-66
2022/01/28 21:10:42;;;;;;;16.27;6.85;;;8.50;99.90;;;;;;10509343;28;20122;-65
2022/01/28 21:15:45;;;;;;;11.88;6.18;;;8.30;99.90;;;;;;10503983;28;20027;-64
2022/01/28 21:20:46;;;;;;;18.65;7.63;;;8.50;99.90;;;;;;10514626;28;20147;-64
2022/01/28 21:25:47;;;;;;;18.35;7.28;;;8.50;99.90;;;;;;10504665;28;20088;-66
2022/01/28 21:30:49;;;;;;;17.45;6.82;;;8.40;99.90;;;;;;10500233;28;20477;-65
2022/01/28 21:35:50;;;;;;;15.50;7.03;;;8.40;99.90;;;;;;10510308;28;20099;-63
2022/01/28 21:40:54;;;;;;;14.70;6.97;;;8.40;99.90;;;;;;10506087;28;20024;-65
2022/01/28 21:45:55;;;;;;;13.15;6.55;;;8.40;99.90;;;;;;10511282;28;20035;-65
2022/01/28 21:50:56;;;;;;;18.38;8.00;;;8.40;99.90;;;;;;10514170;28;20887;-64
2022/01/28 21:55:57;;;;;;;15.05;7.32;;;8.40;99.90;;;;;;10510188;28;20124;-65
2022/01/28 22:00:58;;;;;;;17.77;7.30;;;8.30;99.90;;;;;;10518717;28;20020;-64
2022/01/28 22:05:59;;;;;;;17.40;8.13;;;8.40;99.90;;;;;;10520909;28;20028;-64
2022/01/28 22:11:00;;;;;;;17.45;8.23;;;8.40;99.90;;;;;;10522211;28;20024;-65
2022/01/28 22:16:02;;;;;;;19.02;8.20;;;8.40;99.90;;;;;;10506886;28;20088;-65
2022/01/28 22:21:02;;;;;;;19.00;7.95;;;8.40;99.90;;;;;;10514280;28;20680;-66
2022/01/28 22:26:03;;;;;;;19.67;9.32;;;8.40;99.90;;;;;;10513358;28;20157;-65
2022/01/28 22:31:04;;;;;;;17.50;8.68;;;8.40;99.90;;;;;;10506134;28;20028;-66
2022/01/28 22:36:05;;;;;;;18.45;8.50;;;8.40;99.90;;;;;;10513419;28;20064;-65
2022/01/28 22:41:05;;;;;;;19.58;8.90;;;8.40;99.90;;;;;;10511895;28;20043;-66
2022/01/28 22:46:06;;;;;;;19.58;9.50;;;8.40;99.90;;;;;;10515612;28;20081;-65
2022/01/28 22:51:07;;;;;;;19.88;8.73;;;8.40;99.90;;;;;;10503482;28;20041;-64
2022/01/28 22:56:08;;;;;;;18.15;8.00;;;8.40;99.90;;;;;;10469985;28;20475;-65
2022/01/28 23:01:08;;;;;;;23.30;9.20;;;8.60;99.90;;;;;;10479615;28;20391;-66
2022/01/28 23:06:10;;;;;;;18.55;8.63;;;8.40;99.90;;;;;;10484919;28;20191;-64
2022/01/28 23:11:10;;;;;;;23.00;9.52;;;8.40;99.90;;;;;;10478197;28;20036;-65
2022/01/28 23:16:11;;;;;;;21.38;8.55;;;8.40;99.90;;;;;;10468720;28;20364;-64
2022/01/28 23:21:12;;;;;;;19.38;8.80;;;8.40;99.90;;;;;;10457309;28;20016;-65
2022/01/28 23:26:13;;;;;;;17.30;8.75;;;8.40;99.90;;;;;;10463067;28;20037;-67
2022/01/28 23:31:15;;;;;;;22.08;9.57;;;8.40;99.90;;;;;;10466896;28;20021;-65
2022/01/28 23:36:16;;;;;;;22.85;10.25;;;8.40;99.90;;;;;;10469767;28;20080;-66
2022/01/28 23:41:17;;;;;;;19.10;9.63;;;8.40;99.90;;;;;;10470732;28;20073;-65
2022/01/28 23:46:17;;;;;;;22.15;10.23;;;8.40;99.90;;;;;;10477420;28;20033;-65
2022/01/28 23:51:18;;;;;;;19.00;9.60;;;8.50;99.90;;;;;;10487823;28;20044;-65
2022/01/28 23:56:19;;;;;;;22.38;10.15;;;8.40;99.90;;;;;;10531902;28;20394;-65
